createdAt,value
2017-03-13T00:00:03.388Z,26.62
2017-03-13T00:00:23.482Z,26.64
2017-03-13T00:00:43.493Z,26.64
2017-03-13T00:01:03.262Z,26.69
2017-03-13T00:01:23.010Z,26.71
2017-03-13T00:01:40.989Z,26.67
2017-03-13T00:02:00.150Z,26.61
2017-03-13T00:02:20.276Z,26.76
2017-03-13T00:02:40.277Z,26.69
2017-03-13T00:02:59.490Z,26.62
2017-03-13T00:03:19.309Z,26.62
2017-03-13T00:03:39.061Z,26.64
2017-03-13T00:03:58.794Z,26.64
2017-03-13T00:04:18.978Z,26.65
2017-03-13T00:04:39.171Z,26.65
2017-03-13T00:04:58.946Z,26.69
2017-03-13T00:05:18.739Z,26.71
2017-03-13T00:05:38.502Z,26.69
2017-03-13T00:05:58.251Z,26.62
2017-03-13T00:06:17.817Z,26.72
2017-03-13T00:06:36.733Z,26.53
2017-03-13T00:06:56.538Z,26.6
2017-03-13T00:07:15.796Z,26.58
2017-03-13T00:07:35.635Z,26.57
2017-03-13T00:07:55.369Z,26.58
2017-03-13T00:08:14.872Z,26.61
2017-03-13T00:08:35.178Z,26.58
2017-03-13T00:08:55.051Z,26.58
2017-03-13T00:09:14.822Z,26.47
2017-03-13T00:09:34.037Z,26.49
2017-03-13T00:09:53.800Z,26.43
2017-03-13T00:10:13.853Z,26.46
2017-03-13T00:10:33.548Z,26.46
2017-03-13T00:10:53.344Z,26.45
2017-03-13T00:11:13.114Z,26.38
2017-03-13T00:11:32.890Z,26.43
2017-03-13T00:11:52.087Z,26.42
2017-03-13T00:12:11.479Z,26.4
2017-03-13T00:12:31.954Z,26.49
2017-03-13T00:12:51.880Z,26.38
2017-03-13T00:13:10.486Z,26.45
2017-03-13T00:13:30.396Z,26.42
2017-03-13T00:13:49.609Z,26.39
2017-03-13T00:14:09.640Z,26.4
2017-03-13T00:14:30.137Z,26.42
2017-03-13T00:14:50.202Z,26.4
2017-03-13T00:15:10.097Z,26.28
2017-03-13T00:15:29.948Z,26.39
2017-03-13T00:15:48.526Z,26.4
2017-03-13T00:16:08.447Z,26.38
2017-03-13T00:16:28.860Z,26.43
2017-03-13T00:16:48.848Z,26.46
2017-03-13T00:17:08.016Z,26.45
2017-03-13T00:17:27.834Z,26.5
2017-03-13T00:17:47.603Z,26.5
2017-03-13T00:18:07.574Z,26.39
2017-03-13T00:18:28.071Z,26.52
2017-03-13T00:18:47.410Z,26.46
2017-03-13T00:19:06.901Z,26.4
2017-03-13T00:19:26.065Z,26.46
2017-03-13T00:19:45.226Z,26.5
2017-03-13T00:20:05.332Z,26.53
2017-03-13T00:20:25.141Z,26.55
2017-03-13T00:20:45.207Z,26.57
2017-03-13T00:21:04.372Z,26.55
2017-03-13T00:21:24.194Z,26.58
2017-03-13T00:21:43.982Z,26.5
2017-03-13T00:22:03.175Z,26.53
2017-03-13T00:22:23.460Z,26.6
2017-03-13T00:22:43.573Z,26.5
2017-03-13T00:23:03.960Z,26.57
2017-03-13T00:23:23.830Z,26.52
2017-03-13T00:23:43.621Z,26.53
2017-03-13T00:24:03.310Z,26.52
2017-03-13T00:24:23.763Z,26.64
2017-03-13T00:24:44.224Z,26.71
2017-03-13T00:25:04.708Z,26.76
2017-03-13T00:25:25.186Z,26.8
2017-03-13T00:25:45.556Z,26.79
2017-03-13T00:26:05.989Z,26.82
2017-03-13T00:26:25.789Z,26.79
2017-03-13T00:26:46.167Z,26.76
2017-03-13T00:27:06.473Z,26.83
2017-03-13T00:27:26.957Z,26.8
2017-03-13T00:27:47.442Z,26.84
2017-03-13T00:28:07.226Z,26.87
2017-03-13T00:28:27.741Z,26.77
2017-03-13T00:28:48.137Z,26.8
2017-03-13T00:29:08.601Z,26.71
2017-03-13T00:29:29.088Z,26.76
2017-03-13T00:29:49.485Z,26.76
2017-03-13T00:30:09.306Z,26.71
2017-03-13T00:30:29.783Z,26.76
2017-03-13T00:30:50.092Z,26.65
2017-03-13T00:31:10.566Z,26.76
2017-03-13T00:31:31.040Z,26.75
2017-03-13T00:31:51.529Z,26.77
2017-03-13T00:32:11.967Z,26.79
2017-03-13T00:32:31.729Z,26.83
2017-03-13T00:32:52.180Z,26.82
2017-03-13T00:33:12.625Z,26.87
2017-03-13T00:33:33.077Z,26.82
2017-03-13T00:33:52.912Z,26.8
2017-03-13T00:34:13.405Z,26.82
2017-03-13T00:34:33.882Z,26.87
2017-03-13T00:34:53.721Z,26.86
2017-03-13T00:35:14.149Z,26.92
2017-03-13T00:35:34.785Z,26.89
2017-03-13T00:35:54.596Z,26.94
2017-03-13T00:36:15.001Z,26.86
2017-03-13T00:36:35.457Z,26.84
2017-03-13T00:36:55.934Z,26.84
2017-03-13T00:37:16.411Z,26.92
2017-03-13T00:37:36.266Z,26.94
2017-03-13T00:37:56.750Z,26.87
2017-03-13T00:38:17.205Z,26.76
2017-03-13T00:38:37.652Z,26.8
2017-03-13T00:38:58.017Z,26.83
2017-03-13T00:39:18.513Z,26.75
2017-03-13T00:39:38.927Z,26.72
2017-03-13T00:39:59.383Z,26.68
2017-03-13T00:40:33.556Z,26.6
2017-03-13T00:40:54.042Z,26.71
2017-03-13T00:41:14.497Z,26.71
2017-03-13T00:41:35.019Z,26.76
2017-03-13T00:41:54.825Z,26.75
2017-03-13T00:42:15.239Z,26.75
2017-03-13T00:42:35.034Z,26.82
2017-03-13T00:42:55.440Z,26.69
2017-03-13T00:43:16.058Z,26.77
2017-03-13T00:43:36.502Z,26.79
2017-03-13T00:43:56.983Z,26.79
2017-03-13T00:44:16.788Z,26.84
2017-03-13T00:44:36.621Z,26.84
2017-03-13T00:44:57.047Z,26.82
2017-03-13T00:45:17.476Z,26.79
2017-03-13T00:45:37.343Z,26.65
2017-03-13T00:45:57.845Z,26.75
2017-03-13T00:46:18.281Z,26.65
2017-03-13T00:46:38.095Z,26.65
2017-03-13T00:46:58.586Z,26.68
2017-03-13T00:47:19.020Z,26.69
2017-03-13T00:47:39.453Z,26.72
2017-03-13T00:47:59.934Z,26.65
2017-03-13T00:48:20.354Z,26.68
2017-03-13T00:48:40.820Z,26.75
2017-03-13T00:49:01.267Z,26.69
2017-03-13T00:49:21.930Z,26.72
2017-03-13T00:49:41.738Z,26.71
2017-03-13T00:50:02.189Z,26.65
2017-03-13T00:50:22.007Z,26.62
2017-03-13T00:50:41.803Z,26.75
2017-03-13T00:51:02.262Z,26.68
2017-03-13T00:51:22.067Z,26.75
2017-03-13T00:51:42.571Z,26.72
2017-03-13T00:52:03.014Z,26.62
2017-03-13T00:52:23.483Z,26.6
2017-03-13T00:52:43.923Z,26.57
2017-03-13T00:53:04.385Z,26.6
2017-03-13T00:53:24.831Z,26.61
2017-03-13T00:53:44.654Z,26.6
2017-03-13T00:54:05.251Z,26.6
2017-03-13T00:54:25.680Z,26.52
2017-03-13T00:54:45.534Z,26.6
2017-03-13T00:55:06.011Z,26.52
2017-03-13T00:55:26.496Z,26.52
2017-03-13T00:55:46.932Z,26.43
2017-03-13T00:56:07.344Z,26.35
2017-03-13T00:56:26.517Z,26.32
2017-03-13T00:56:47.002Z,26.31
2017-03-13T00:57:07.436Z,26.31
2017-03-13T00:57:27.234Z,26.28
2017-03-13T00:57:47.702Z,26.35
2017-03-13T00:58:08.163Z,26.38
2017-03-13T00:58:28.595Z,26.34
2017-03-13T00:58:49.104Z,26.28
2017-03-13T00:59:08.909Z,26.3
2017-03-13T00:59:29.469Z,26.23
2017-03-13T00:59:49.920Z,26.16
2017-03-13T01:00:10.211Z,26.09
2017-03-13T01:00:30.699Z,26.07
2017-03-13T01:00:50.518Z,26.09
2017-03-13T01:01:10.992Z,26.07
2017-03-13T01:01:31.724Z,26.15
2017-03-13T01:01:52.167Z,26.21
2017-03-13T01:02:12.617Z,26.25
2017-03-13T01:02:32.469Z,26.18
2017-03-13T01:02:52.955Z,26.27
2017-03-13T01:03:13.377Z,26.28
2017-03-13T01:03:33.822Z,26.34
2017-03-13T01:03:54.275Z,26.27
2017-03-13T01:04:14.760Z,26.28
2017-03-13T01:04:35.219Z,26.28
2017-03-13T01:04:55.707Z,26.28
2017-03-13T01:05:16.185Z,26.3
2017-03-13T01:05:36.639Z,26.31
2017-03-13T01:05:57.044Z,26.31
2017-03-13T01:06:16.878Z,26.31
2017-03-13T01:06:37.352Z,26.3
2017-03-13T01:06:57.811Z,26.25
2017-03-13T01:07:18.286Z,26.15
2017-03-13T01:07:38.767Z,26.11
2017-03-13T01:07:59.217Z,26.16
2017-03-13T01:08:19.048Z,26.18
2017-03-13T01:08:39.494Z,26.3
2017-03-13T01:08:59.945Z,26.28
2017-03-13T01:09:20.413Z,26.3
2017-03-13T01:09:39.632Z,26.3
2017-03-13T01:10:00.092Z,26.27
2017-03-13T01:10:19.903Z,26.25
2017-03-13T01:10:40.335Z,26.3
2017-03-13T01:11:00.817Z,26.31
2017-03-13T01:11:21.288Z,26.24
2017-03-13T01:11:41.864Z,26.25
2017-03-13T01:12:02.339Z,26.3
2017-03-13T01:12:22.797Z,26.27
2017-03-13T01:12:43.195Z,26.25
2017-03-13T01:13:03.650Z,26.31
2017-03-13T01:13:24.090Z,26.3
2017-03-13T01:13:44.484Z,26.31
2017-03-13T01:14:04.948Z,26.3
2017-03-13T01:14:25.415Z,26.3
2017-03-13T01:14:45.853Z,26.27
2017-03-13T01:15:06.509Z,26.3
2017-03-13T01:15:26.981Z,26.34
2017-03-13T01:15:47.389Z,26.31
2017-03-13T01:16:07.814Z,26.35
2017-03-13T01:16:27.646Z,26.25
2017-03-13T01:16:48.076Z,26.3
2017-03-13T01:17:08.494Z,26.35
2017-03-13T01:17:27.007Z,26.31
2017-03-13T01:17:47.452Z,26.3
2017-03-13T01:18:07.870Z,26.3
2017-03-13T01:18:27.711Z,26.38
2017-03-13T01:18:47.488Z,26.3
2017-03-13T01:19:08.123Z,26.28
2017-03-13T01:19:27.955Z,26.31
2017-03-13T01:19:48.445Z,26.3
2017-03-13T01:20:08.862Z,26.31
2017-03-13T01:20:28.712Z,26.28
2017-03-13T01:20:49.214Z,26.39
2017-03-13T01:21:09.696Z,26.32
2017-03-13T01:21:29.521Z,26.25
2017-03-13T01:21:49.950Z,26.31
2017-03-13T01:22:09.161Z,26.38
2017-03-13T01:22:29.652Z,26.34
2017-03-13T01:22:50.102Z,26.35
2017-03-13T01:23:10.559Z,26.32
2017-03-13T01:23:30.369Z,26.31
2017-03-13T01:23:50.183Z,26.34
2017-03-13T01:24:10.742Z,26.27
2017-03-13T01:24:30.754Z,26.31
2017-03-13T01:24:51.163Z,26.31
2017-03-13T01:25:11.630Z,26.35
2017-03-13T01:25:31.474Z,26.28
2017-03-13T01:25:51.914Z,26.42
2017-03-13T01:26:11.722Z,26.34
2017-03-13T01:26:32.231Z,26.45
2017-03-13T01:26:52.755Z,26.42
2017-03-13T01:27:13.223Z,26.45
2017-03-13T01:27:33.655Z,26.38
2017-03-13T01:27:54.080Z,26.4
2017-03-13T01:28:14.601Z,26.47
2017-03-13T01:28:34.420Z,26.49
2017-03-13T01:28:54.854Z,26.43
2017-03-13T01:29:15.623Z,26.45
2017-03-13T01:29:36.106Z,26.46
2017-03-13T01:29:56.551Z,26.46
2017-03-13T01:30:16.374Z,26.43
2017-03-13T01:30:36.789Z,26.45
2017-03-13T01:30:57.187Z,26.42
2017-03-13T01:31:16.995Z,26.43
2017-03-13T01:31:36.823Z,26.4
2017-03-13T01:31:57.260Z,26.42
2017-03-13T01:32:17.080Z,26.43
2017-03-13T01:32:37.529Z,26.38
2017-03-13T01:32:57.994Z,26.46
2017-03-13T01:33:18.441Z,26.43
2017-03-13T01:33:39.245Z,26.4
2017-03-13T01:33:59.678Z,26.34
2017-03-13T01:34:20.206Z,26.34
2017-03-13T01:34:40.746Z,26.38
2017-03-13T01:35:01.179Z,26.31
2017-03-13T01:35:21.623Z,26.27
2017-03-13T01:35:42.105Z,26.28
2017-03-13T01:36:01.931Z,26.23
2017-03-13T01:36:22.338Z,26.27
2017-03-13T01:36:42.971Z,26.24
2017-03-13T01:37:03.462Z,26.23
2017-03-13T01:37:23.962Z,26.3
2017-03-13T01:37:43.127Z,26.12
2017-03-13T01:38:03.579Z,26.09
2017-03-13T01:38:23.382Z,26.08
2017-03-13T01:38:43.745Z,26.05
2017-03-13T01:39:04.162Z,26.09
2017-03-13T01:39:25.207Z,26.07
2017-03-13T01:39:45.692Z,26.08
2017-03-13T01:40:19.925Z,26.16
2017-03-13T01:40:40.363Z,26.34
2017-03-13T01:41:00.811Z,26.42
2017-03-13T01:41:20.658Z,26.55
2017-03-13T01:41:41.108Z,26.49
2017-03-13T01:42:01.553Z,26.5
2017-03-13T01:42:22.027Z,26.53
2017-03-13T01:42:42.554Z,26.49
2017-03-13T01:43:03.102Z,26.43
2017-03-13T01:43:23.551Z,26.49
2017-03-13T01:43:43.941Z,26.4
2017-03-13T01:44:04.399Z,26.4
2017-03-13T01:44:24.837Z,26.23
2017-03-13T01:44:45.284Z,26.3
2017-03-13T01:45:05.749Z,26.3
2017-03-13T01:45:26.179Z,26.3
2017-03-13T01:45:46.636Z,26.24
2017-03-13T01:46:06.466Z,26.3
2017-03-13T01:46:26.947Z,26.16
2017-03-13T01:46:46.788Z,26.24
2017-03-13T01:47:07.261Z,26.16
2017-03-13T01:47:27.090Z,26.16
2017-03-13T01:47:47.569Z,26.21
2017-03-13T01:48:08.009Z,26.21
2017-03-13T01:48:28.512Z,26.23
2017-03-13T01:48:48.294Z,26.23
2017-03-13T01:49:08.114Z,26.18
2017-03-13T01:49:28.627Z,26.23
2017-03-13T01:49:48.480Z,25.94
2017-03-13T01:50:09.131Z,26.07
2017-03-13T01:50:29.616Z,26.07
2017-03-13T01:50:49.421Z,25.89
2017-03-13T01:51:09.869Z,25.83
2017-03-13T01:51:29.654Z,25.83
2017-03-13T01:51:50.112Z,25.78
2017-03-13T01:52:10.549Z,25.71
2017-03-13T01:52:30.998Z,25.84
2017-03-13T01:52:50.799Z,25.56
2017-03-13T01:53:11.303Z,25.64
2017-03-13T01:53:31.164Z,25.42
2017-03-13T01:53:51.600Z,25.45
2017-03-13T01:54:11.424Z,25.5
2017-03-13T01:54:30.632Z,25.31
2017-03-13T01:54:51.043Z,25.22
2017-03-13T01:55:11.570Z,25.3
2017-03-13T01:55:31.377Z,25.19
2017-03-13T01:55:51.880Z,25.08
2017-03-13T01:56:11.655Z,25.2
2017-03-13T01:56:32.099Z,25.17
2017-03-13T01:56:52.566Z,25.02
2017-03-13T01:57:12.349Z,25.01
2017-03-13T01:57:32.789Z,25.01
2017-03-13T01:57:53.216Z,25.16
2017-03-13T01:58:12.978Z,24.83
2017-03-13T01:58:33.420Z,24.9
2017-03-13T01:58:53.242Z,24.95
2017-03-13T01:59:13.718Z,25.01
2017-03-13T01:59:34.172Z,25.02
2017-03-13T01:59:54.629Z,24.94
2017-03-13T02:00:13.781Z,24.95
2017-03-13T02:00:34.241Z,24.83
2017-03-13T02:00:54.736Z,24.82
2017-03-13T02:01:13.877Z,24.9
2017-03-13T02:01:33.709Z,25.04
2017-03-13T02:01:54.131Z,24.91
2017-03-13T02:02:14.417Z,24.97
2017-03-13T02:02:34.830Z,24.73
2017-03-13T02:02:55.285Z,24.75
2017-03-13T02:03:15.756Z,24.75
2017-03-13T02:03:34.895Z,24.76
2017-03-13T02:03:54.730Z,24.9
2017-03-13T02:04:14.504Z,24.97
2017-03-13T02:04:34.969Z,24.95
2017-03-13T02:04:54.769Z,24.9
2017-03-13T02:05:15.248Z,24.76
2017-03-13T02:05:35.739Z,24.6
2017-03-13T02:05:56.217Z,24.76
2017-03-13T02:06:16.660Z,24.48
2017-03-13T02:06:37.075Z,24.48
2017-03-13T02:06:57.526Z,24.47
2017-03-13T02:07:17.987Z,24.44
2017-03-13T02:07:38.462Z,24.44
2017-03-13T02:07:58.903Z,24.45
2017-03-13T02:08:19.349Z,24.26
2017-03-13T02:08:39.841Z,24.29
2017-03-13T02:09:00.266Z,24.22
2017-03-13T02:09:20.739Z,24.34
2017-03-13T02:09:40.593Z,24.22
2017-03-13T02:10:01.041Z,24.23
2017-03-13T02:10:21.988Z,24.25
2017-03-13T02:10:42.422Z,24.17
2017-03-13T02:11:02.375Z,24.04
2017-03-13T02:11:22.806Z,24.12
2017-03-13T02:11:43.293Z,24.05
2017-03-13T02:12:03.692Z,24
2017-03-13T02:12:23.507Z,24.02
2017-03-13T02:12:43.987Z,23.95
2017-03-13T02:13:03.770Z,24.01
2017-03-13T02:13:24.235Z,24
2017-03-13T02:13:44.687Z,23.92
2017-03-13T02:14:05.105Z,23.9
2017-03-13T02:14:24.275Z,23.92
2017-03-13T02:14:44.822Z,24
2017-03-13T02:15:05.498Z,23.92
2017-03-13T02:15:25.303Z,23.75
2017-03-13T02:15:45.803Z,23.7
2017-03-13T02:16:06.257Z,23.56
2017-03-13T02:16:26.724Z,23.65
2017-03-13T02:16:47.144Z,23.63
2017-03-13T02:17:07.633Z,23.5
2017-03-13T02:17:28.053Z,23.4
2017-03-13T02:17:48.562Z,23.34
2017-03-13T02:18:09.034Z,23.4
2017-03-13T02:18:29.532Z,23.34
2017-03-13T02:18:49.953Z,23.42
2017-03-13T02:19:10.394Z,23.31
2017-03-13T02:19:30.239Z,23.4
2017-03-13T02:19:50.946Z,23.45
2017-03-13T02:20:11.415Z,23.38
2017-03-13T02:20:31.860Z,23.37
2017-03-13T02:20:52.333Z,23.4
2017-03-13T02:21:12.836Z,23.38
2017-03-13T02:21:33.296Z,23.37
2017-03-13T02:21:53.834Z,23.37
2017-03-13T02:22:14.264Z,23.34
2017-03-13T02:22:34.088Z,23.17
2017-03-13T02:22:54.528Z,23.23
2017-03-13T02:23:14.981Z,23.33
2017-03-13T02:23:34.992Z,23.24
2017-03-13T02:23:55.910Z,23.18
2017-03-13T02:24:16.387Z,23.23
2017-03-13T02:24:36.302Z,23.17
2017-03-13T02:24:56.972Z,23.15
2017-03-13T02:25:17.400Z,23.18
2017-03-13T02:25:38.059Z,23.22
2017-03-13T02:25:57.921Z,23.08
2017-03-13T02:26:18.398Z,23.14
2017-03-13T02:26:38.827Z,23.09
2017-03-13T02:26:58.690Z,23.26
2017-03-13T02:27:19.091Z,23.22
2017-03-13T02:27:39.525Z,23.22
2017-03-13T02:28:00.000Z,23.31
2017-03-13T02:28:19.838Z,23.27
2017-03-13T02:28:40.381Z,23.12
2017-03-13T02:29:00.802Z,23.31
2017-03-13T02:29:21.274Z,23.26
2017-03-13T02:29:41.746Z,23.2
2017-03-13T02:30:01.549Z,23.14
2017-03-13T02:30:21.991Z,23.09
2017-03-13T02:30:42.432Z,23.17
2017-03-13T02:31:02.871Z,23.18
2017-03-13T02:31:23.295Z,23.26
2017-03-13T02:31:43.914Z,23.18
2017-03-13T02:32:03.773Z,23.12
2017-03-13T02:32:23.621Z,23.07
2017-03-13T02:32:43.644Z,23.11
2017-03-13T02:33:04.127Z,23.09
2017-03-13T02:33:24.602Z,23.15
2017-03-13T02:33:45.521Z,23.2
2017-03-13T02:34:04.739Z,23.22
2017-03-13T02:34:24.564Z,23
2017-03-13T02:34:44.384Z,23.09
2017-03-13T02:35:04.829Z,23.11
2017-03-13T02:35:25.265Z,23.08
2017-03-13T02:35:45.705Z,23.02
2017-03-13T02:36:06.170Z,22.99
2017-03-13T02:36:26.685Z,23.09
2017-03-13T02:36:47.151Z,23.11
2017-03-13T02:37:07.648Z,23.08
2017-03-13T02:37:28.066Z,23.02
2017-03-13T02:37:48.561Z,22.9
2017-03-13T02:38:09.024Z,22.97
2017-03-13T02:38:29.711Z,22.93
2017-03-13T02:38:50.171Z,23
2017-03-13T02:39:10.618Z,22.94
2017-03-13T02:39:31.082Z,23.11
2017-03-13T02:39:51.543Z,23.09
2017-03-13T02:40:12.083Z,23.02
2017-03-13T02:40:32.614Z,23.05
2017-03-13T02:40:53.076Z,23.09
2017-03-13T02:41:12.919Z,23.11
2017-03-13T02:41:33.355Z,23.02
2017-03-13T02:41:53.827Z,23.07
2017-03-13T02:42:14.732Z,23.04
2017-03-13T02:42:35.198Z,23.08
2017-03-13T02:42:55.667Z,23.09
2017-03-13T02:43:15.464Z,23.05
2017-03-13T02:43:35.292Z,23.17
2017-03-13T02:43:55.722Z,23.2
2017-03-13T02:44:15.535Z,23.07
2017-03-13T02:44:35.637Z,23.2
2017-03-13T02:44:56.131Z,23.09
2017-03-13T02:45:15.978Z,23.07
2017-03-13T02:45:36.517Z,23.09
2017-03-13T02:45:57.191Z,23.12
2017-03-13T02:46:17.028Z,23.07
2017-03-13T02:46:37.465Z,23.07
2017-03-13T02:46:58.097Z,22.99
2017-03-13T02:47:18.573Z,23.12
2017-03-13T02:47:38.353Z,22.92
2017-03-13T02:47:58.835Z,23
2017-03-13T02:48:19.368Z,22.97
2017-03-13T02:48:39.830Z,23.02
2017-03-13T02:49:00.278Z,22.93
2017-03-13T02:49:20.905Z,22.94
2017-03-13T02:49:41.362Z,22.79
2017-03-13T02:50:01.839Z,22.9
2017-03-13T02:50:22.291Z,22.89
2017-03-13T02:50:42.775Z,22.99
2017-03-13T02:51:02.550Z,22.87
2017-03-13T02:51:23.019Z,22.89
2017-03-13T02:51:43.449Z,22.99
2017-03-13T02:52:03.918Z,22.99
2017-03-13T02:52:24.392Z,22.87
2017-03-13T02:52:44.904Z,22.86
2017-03-13T02:53:05.343Z,22.89
2017-03-13T02:53:25.796Z,22.87
2017-03-13T02:53:46.272Z,22.94
2017-03-13T02:54:06.711Z,23.05
2017-03-13T02:54:27.197Z,23.05
2017-03-13T02:54:47.037Z,22.96
2017-03-13T02:55:07.481Z,22.92
2017-03-13T02:55:27.322Z,22.89
2017-03-13T02:55:47.819Z,22.96
2017-03-13T02:56:08.278Z,23.04
2017-03-13T02:56:28.108Z,23.11
2017-03-13T02:56:48.585Z,23.08
2017-03-13T02:57:09.254Z,23.05
2017-03-13T02:57:29.727Z,23.14
2017-03-13T02:57:50.209Z,23.09
2017-03-13T02:58:10.672Z,23.17
2017-03-13T02:58:30.492Z,23.23
2017-03-13T02:58:50.968Z,23.24
2017-03-13T02:59:11.433Z,23.09
2017-03-13T02:59:31.876Z,23.15
2017-03-13T02:59:52.304Z,23.22
2017-03-13T03:00:12.826Z,23.23
2017-03-13T03:00:33.322Z,23.2
2017-03-13T03:00:53.771Z,23.18
2017-03-13T03:01:14.225Z,23.24
2017-03-13T03:01:34.738Z,23.27
2017-03-13T03:01:55.215Z,23.24
2017-03-13T03:02:15.702Z,23.22
2017-03-13T03:02:36.140Z,23.22
2017-03-13T03:02:56.573Z,23.14
2017-03-13T03:03:16.993Z,23.23
2017-03-13T03:03:37.441Z,23.17
2017-03-13T03:03:57.919Z,23.12
2017-03-13T03:04:18.354Z,23.22
2017-03-13T03:04:38.914Z,23.24
2017-03-13T03:04:58.106Z,23.2
2017-03-13T03:05:18.539Z,23.27
2017-03-13T03:05:38.345Z,23.33
2017-03-13T03:05:58.757Z,23.33
2017-03-13T03:06:19.230Z,23.33
2017-03-13T03:06:39.678Z,23.37
2017-03-13T03:07:00.149Z,23.43
2017-03-13T03:07:20.637Z,23.42
2017-03-13T03:07:41.088Z,23.45
2017-03-13T03:08:01.585Z,23.48
2017-03-13T03:08:21.442Z,23.4
2017-03-13T03:08:41.457Z,23.45
2017-03-13T03:09:01.912Z,23.42
2017-03-13T03:09:22.389Z,23.37
2017-03-13T03:09:41.538Z,23.45
2017-03-13T03:10:01.319Z,23.53
2017-03-13T03:10:21.790Z,23.58
2017-03-13T03:10:41.613Z,23.56
2017-03-13T03:11:02.099Z,23.43
2017-03-13T03:11:22.318Z,23.49
2017-03-13T03:11:42.761Z,23.56
2017-03-13T03:12:02.590Z,23.6
2017-03-13T03:12:21.799Z,23.67
2017-03-13T03:12:42.240Z,23.67
2017-03-13T03:13:02.649Z,23.6
2017-03-13T03:13:23.555Z,23.65
2017-03-13T03:13:43.982Z,23.52
2017-03-13T03:14:04.386Z,23.55
2017-03-13T03:14:24.887Z,23.55
2017-03-13T03:14:45.358Z,23.56
2017-03-13T03:15:06.021Z,23.64
2017-03-13T03:15:25.807Z,23.64
2017-03-13T03:15:45.664Z,23.48
2017-03-13T03:16:06.133Z,23.46
2017-03-13T03:16:25.916Z,23.46
2017-03-13T03:16:46.423Z,23.45
2017-03-13T03:17:06.264Z,23.45
2017-03-13T03:17:26.727Z,23.42
2017-03-13T03:17:47.170Z,23.43
2017-03-13T03:18:07.622Z,23.43
2017-03-13T03:18:28.103Z,23.42
2017-03-13T03:18:47.920Z,23.45
2017-03-13T03:19:08.363Z,23.37
2017-03-13T03:19:29.239Z,23.37
2017-03-13T03:19:49.084Z,23.4
2017-03-13T03:20:08.451Z,23.34
2017-03-13T03:20:28.928Z,23.37
2017-03-13T03:20:49.355Z,23.38
2017-03-13T03:21:09.824Z,23.38
2017-03-13T03:21:29.668Z,23.38
2017-03-13T03:21:49.481Z,23.4
2017-03-13T03:22:09.943Z,23.26
2017-03-13T03:22:29.813Z,23.38
2017-03-13T03:22:50.266Z,23.37
2017-03-13T03:23:10.752Z,23.45
2017-03-13T03:23:31.217Z,23.46
2017-03-13T03:23:51.687Z,23.4
2017-03-13T03:24:12.170Z,23.33
2017-03-13T03:24:32.841Z,23.31
2017-03-13T03:24:53.300Z,23.45
2017-03-13T03:25:13.756Z,23.46
2017-03-13T03:25:34.191Z,23.45
2017-03-13T03:25:54.619Z,23.42
2017-03-13T03:26:13.853Z,23.4
2017-03-13T03:26:34.262Z,23.35
2017-03-13T03:26:54.697Z,23.46
2017-03-13T03:27:15.159Z,23.42
2017-03-13T03:27:34.985Z,23.31
2017-03-13T03:27:54.741Z,23.26
2017-03-13T03:28:15.186Z,23.37
2017-03-13T03:28:35.722Z,23.38
2017-03-13T03:28:56.184Z,23.42
2017-03-13T03:29:16.584Z,23.45
2017-03-13T03:29:35.765Z,23.43
2017-03-13T03:29:56.247Z,23.4
2017-03-13T03:30:16.294Z,23.46
2017-03-13T03:30:36.116Z,23.38
2017-03-13T03:30:56.555Z,23.33
2017-03-13T03:31:16.991Z,23.35
2017-03-13T03:31:37.465Z,23.38
2017-03-13T03:31:57.924Z,23.4
2017-03-13T03:32:17.707Z,23.46
2017-03-13T03:32:37.525Z,23.48
2017-03-13T03:32:57.924Z,23.42
2017-03-13T03:33:18.383Z,23.55
2017-03-13T03:33:38.831Z,23.49
2017-03-13T03:33:57.979Z,23.63
2017-03-13T03:34:18.527Z,23.55
2017-03-13T03:34:39.115Z,23.52
2017-03-13T03:34:59.613Z,23.46
2017-03-13T03:35:20.251Z,23.46
2017-03-13T03:35:40.694Z,23.56
2017-03-13T03:36:01.148Z,23.53
2017-03-13T03:36:21.664Z,23.53
2017-03-13T03:36:42.177Z,23.63
2017-03-13T03:37:02.019Z,23.58
2017-03-13T03:37:22.489Z,23.63
2017-03-13T03:37:42.952Z,23.79
2017-03-13T03:38:03.424Z,23.71
2017-03-13T03:38:23.256Z,23.65
2017-03-13T03:38:43.737Z,23.64
2017-03-13T03:39:04.399Z,23.6
2017-03-13T03:39:24.817Z,23.67
2017-03-13T03:39:45.316Z,23.75
2017-03-13T03:40:05.782Z,23.64
2017-03-13T03:40:26.249Z,23.52
2017-03-13T03:40:46.081Z,23.48
2017-03-13T03:41:06.534Z,23.58
2017-03-13T03:41:27.002Z,23.68
2017-03-13T03:41:47.469Z,23.72
2017-03-13T03:42:07.926Z,23.75
2017-03-13T03:42:28.410Z,23.72
2017-03-13T03:42:48.930Z,23.75
2017-03-13T03:43:08.729Z,23.75
2017-03-13T03:43:29.196Z,23.95
2017-03-13T03:43:49.661Z,23.74
2017-03-13T03:44:10.141Z,23.63
2017-03-13T03:44:30.612Z,23.67
2017-03-13T03:44:49.973Z,23.71
2017-03-13T03:45:09.748Z,23.68
2017-03-13T03:45:30.200Z,23.72
2017-03-13T03:45:50.688Z,23.7
2017-03-13T03:46:11.313Z,23.56
2017-03-13T03:46:31.825Z,23.46
2017-03-13T03:46:52.240Z,23.49
2017-03-13T03:47:12.078Z,23.49
2017-03-13T03:47:32.511Z,23.46
2017-03-13T03:47:52.946Z,23.64
2017-03-13T03:48:13.409Z,23.68
2017-03-13T03:48:33.865Z,23.65
2017-03-13T03:48:54.351Z,23.58
2017-03-13T03:49:14.152Z,23.56
2017-03-13T03:49:34.789Z,23.56
2017-03-13T03:49:55.210Z,23.37
2017-03-13T03:50:15.701Z,23.4
2017-03-13T03:50:36.161Z,23.38
2017-03-13T03:50:56.592Z,23.38
2017-03-13T03:51:17.048Z,23.4
2017-03-13T03:51:37.461Z,23.4
2017-03-13T03:51:57.937Z,23.49
2017-03-13T03:52:18.838Z,23.48
2017-03-13T03:52:39.348Z,23.49
2017-03-13T03:52:59.832Z,23.5
2017-03-13T03:53:20.329Z,23.58
2017-03-13T03:53:40.792Z,23.55
2017-03-13T03:54:01.240Z,23.61
2017-03-13T03:54:21.723Z,23.52
2017-03-13T03:54:42.435Z,23.65
2017-03-13T03:55:02.887Z,23.61
2017-03-13T03:55:22.076Z,23.65
2017-03-13T03:55:42.523Z,23.75
2017-03-13T03:56:02.953Z,23.72
2017-03-13T03:56:22.740Z,23.79
2017-03-13T03:56:43.195Z,23.72
2017-03-13T03:57:02.992Z,23.78
2017-03-13T03:57:23.395Z,23.83
2017-03-13T03:57:43.890Z,23.89
2017-03-13T03:58:04.326Z,23.93
2017-03-13T03:58:24.784Z,23.95
2017-03-13T03:58:45.211Z,23.74
2017-03-13T03:59:05.663Z,23.65
2017-03-13T03:59:24.796Z,23.8
2017-03-13T03:59:45.288Z,23.65
2017-03-13T04:00:05.916Z,23.68
2017-03-13T04:00:26.389Z,23.86
2017-03-13T04:00:46.186Z,23.8
2017-03-13T04:01:05.303Z,23.8
2017-03-13T04:01:25.781Z,23.79
2017-03-13T04:01:45.567Z,23.79
2017-03-13T04:02:06.026Z,23.89
2017-03-13T04:02:26.509Z,23.79
2017-03-13T04:02:47.003Z,23.92
2017-03-13T04:03:07.464Z,23.8
2017-03-13T04:03:27.930Z,23.71
2017-03-13T04:03:47.741Z,23.67
2017-03-13T04:04:08.181Z,23.75
2017-03-13T04:04:27.991Z,23.55
2017-03-13T04:04:48.468Z,23.67
2017-03-13T04:05:08.857Z,23.67
2017-03-13T04:05:29.324Z,23.72
2017-03-13T04:05:49.137Z,23.71
2017-03-13T04:06:08.952Z,23.71
2017-03-13T04:06:28.953Z,23.79
2017-03-13T04:06:49.427Z,23.7
2017-03-13T04:07:09.881Z,23.68
2017-03-13T04:07:30.319Z,23.65
2017-03-13T04:07:50.802Z,23.74
2017-03-13T04:08:11.258Z,23.68
2017-03-13T04:08:31.728Z,23.67
2017-03-13T04:08:52.209Z,23.7
2017-03-13T04:09:12.071Z,23.65
2017-03-13T04:09:32.484Z,23.78
2017-03-13T04:09:53.067Z,23.7
2017-03-13T04:10:12.862Z,23.72
2017-03-13T04:10:33.339Z,23.74
2017-03-13T04:10:53.795Z,23.68
2017-03-13T04:11:14.290Z,23.63
2017-03-13T04:11:33.445Z,23.52
2017-03-13T04:11:54.089Z,23.53
2017-03-13T04:12:14.543Z,23.52
2017-03-13T04:12:34.610Z,23.38
2017-03-13T04:12:55.080Z,23.49
2017-03-13T04:13:15.558Z,23.4
2017-03-13T04:13:36.017Z,23.43
2017-03-13T04:13:56.445Z,23.48
2017-03-13T04:14:16.236Z,23.42
2017-03-13T04:14:36.750Z,23.37
2017-03-13T04:14:57.178Z,23.4
2017-03-13T04:15:16.998Z,23.34
2017-03-13T04:15:36.815Z,23.27
2017-03-13T04:15:57.309Z,23.29
2017-03-13T04:16:17.776Z,23.24
2017-03-13T04:16:38.216Z,23.2
2017-03-13T04:16:58.853Z,23.11
2017-03-13T04:17:19.285Z,23.07
2017-03-13T04:17:39.759Z,23.09
2017-03-13T04:17:59.516Z,23.02
2017-03-13T04:18:19.330Z,23.08
2017-03-13T04:18:39.789Z,23.04
2017-03-13T04:18:59.585Z,22.99
2017-03-13T04:19:20.047Z,23.02
2017-03-13T04:19:40.532Z,22.97
2017-03-13T04:20:01.081Z,22.94
2017-03-13T04:20:21.539Z,22.89
2017-03-13T04:20:42.022Z,22.87
2017-03-13T04:21:02.496Z,22.84
2017-03-13T04:21:22.961Z,22.74
2017-03-13T04:21:43.437Z,22.78
2017-03-13T04:22:03.894Z,22.75
2017-03-13T04:22:23.725Z,22.74